Portada
METAR-TAF:

METAR-TAF

Aeroports :

Aeroport de Badajoz

Badajoz, Espanya

latitud: 38-53N, longitud: 006-49W, altitud: 185 m

Observació

L'informe es va fer fa 1 hora i 9 minuts, a les 19:00 UTC
Vent 1 kt del Nord-Est
Temperatura 12°C
Humitat 82%
Pressió 1025 hPa
Visibilitat 10 km o més
sense núvols per sota de 1500 mi sense presència de cumulonimbus.

METAR: LEBZ 101900Z 04001KT CAVOK 12/09 Q1025

Hora: 21:09 (20:09 UTC)

Pronòstic

L'informe es va fer fa 3 hores i 9 minuts, a les 17:00 UTC
Pronòstic vàlid del 10 a les 18 UTC al 11 a les 18 UTC
Vent 3 kt amb direcció variable
Visibilitat 10 km o més
sense núvols per sota de 1500 mi sense presència de cumulonimbus.
Probabilitat 40% :
Temporalment
l' 11 a les 00 UTC al 11 a les 09 UTC
Visibilitat: 3000 m
Cel ennuvolat a una alçada de 300 ft
boirina

TAF: LEBZ 101700Z 1018/1118 VRB03KT CAVOK TX15/1115Z TN05/1106Z PROB40 TEMPO 1100/1109 3000 BR BKN003

Observacions i pronòstics meteorològics de més de 4000 aeroports (METAR i TAF).

Les estacions disponibles són els punts grocs i vermells al mapa.

Posi el ratolí al punt desitjat per veure el nom de l'estació.

Feu clic per veure les observacions i els pronòstics meteorològics.

Per canviar el mapa: feu clic els botons verds amb una creu de color negre per apropar; al botó verd amb un guió per allunyar la imatge; o en les fletxes verdes per a mapes adjacents.


METAR-TAF: